sensor_id;sensor_type;location;lat;lon;timestamp;pressure;altitude;pressure_sealevel;temperature;humidity
31538;BME280;18147;51.952;6.146;2023-05-02T00:00:42;101855.00;;;11.96;100.00
31538;BME280;18147;51.952;6.146;2023-05-02T00:03:10;101854.28;;;11.92;100.00
31538;BME280;18147;51.952;6.146;2023-05-02T00:05:36;101859.53;;;12.11;100.00
31538;BME280;18147;51.952;6.146;2023-05-02T00:08:01;101857.88;;;12.08;100.00
31538;BME280;18147;51.952;6.146;2023-05-02T00:10:27;101868.28;;;11.97;100.00
31538;BME280;18147;51.952;6.146;2023-05-02T00:12:53;101861.41;;;12.09;100.00
31538;BME280;18147;51.952;6.146;2023-05-02T00:15:18;101857.66;;;12.29;100.00
31538;BME280;18147;51.952;6.146;2023-05-02T00:17:44;101854.97;;;12.13;100.00
31538;BME280;18147;51.952;6.146;2023-05-02T00:20:10;101856.38;;;12.20;100.00
31538;BME280;18147;51.952;6.146;2023-05-02T00:22:36;101853.13;;;12.31;100.00
31538;BME280;18147;51.952;6.146;2023-05-02T00:25:02;101857.81;;;12.10;100.00
31538;BME280;18147;51.952;6.146;2023-05-02T00:27:29;101855.63;;;12.01;100.00
31538;BME280;18147;51.952;6.146;2023-05-02T00:29:55;101861.59;;;11.88;100.00
31538;BME280;18147;51.952;6.146;2023-05-02T00:32:22;101867.44;;;11.97;100.00
31538;BME280;18147;51.952;6.146;2023-05-02T00:34:48;101868.44;;;11.94;100.00
31538;BME280;18147;51.952;6.146;2023-05-02T00:37:13;101868.13;;;12.00;100.00
31538;BME280;18147;51.952;6.146;2023-05-02T00:39:39;101864.31;;;12.04;100.00
31538;BME280;18147;51.952;6.146;2023-05-02T00:42:08;101869.91;;;12.00;100.00
31538;BME280;18147;51.952;6.146;2023-05-02T00:44:34;101871.66;;;12.01;100.00
31538;BME280;18147;51.952;6.146;2023-05-02T00:47:00;101875.13;;;12.03;100.00
31538;BME280;18147;51.952;6.146;2023-05-02T00:49:26;101872.69;;;11.81;100.00
31538;BME280;18147;51.952;6.146;2023-05-02T00:51:52;101869.84;;;11.84;100.00
31538;BME280;18147;51.952;6.146;2023-05-02T00:54:18;101881.88;;;11.92;100.00
31538;BME280;18147;51.952;6.146;2023-05-02T00:56:43;101872.25;;;11.90;100.00
31538;BME280;18147;51.952;6.146;2023-05-02T00:59:09;101874.41;;;11.99;100.00
31538;BME280;18147;51.952;6.146;2023-05-02T01:04:43;101882.75;;;11.93;100.00
31538;BME280;18147;51.952;6.146;2023-05-02T01:15:27;101883.16;;;11.85;100.00
31538;BME280;18147;51.952;6.146;2023-05-02T01:17:54;101884.47;;;11.77;100.00
31538;BME280;18147;51.952;6.146;2023-05-02T01:20:23;101876.31;;;11.80;100.00
31538;BME280;18147;51.952;6.146;2023-05-02T01:22:55;101874.09;;;11.88;100.00
31538;BME280;18147;51.952;6.146;2023-05-02T01:25:32;101883.13;;;12.03;100.00
31538;BME280;18147;51.952;6.146;2023-05-02T01:28:25;101878.50;;;11.89;100.00
31538;BME280;18147;51.952;6.146;2023-05-02T01:30:54;101877.94;;;12.00;100.00
31538;BME280;18147;51.952;6.146;2023-05-02T01:33:23;101878.75;;;11.84;100.00
31538;BME280;18147;51.952;6.146;2023-05-02T01:35:51;101880.56;;;12.01;100.00
31538;BME280;18147;51.952;6.146;2023-05-02T01:38:18;101881.19;;;11.89;100.00
31538;BME280;18147;51.952;6.146;2023-05-02T01:40:46;101880.00;;;11.95;100.00
31538;BME280;18147;51.952;6.146;2023-05-02T01:43:13;101890.63;;;11.96;100.00
31538;BME280;18147;51.952;6.146;2023-05-02T01:45:43;101885.41;;;12.10;100.00
31538;BME280;18147;51.952;6.146;2023-05-02T01:48:10;101895.50;;;12.05;100.00
31538;BME280;18147;51.952;6.146;2023-05-02T01:50:38;101896.50;;;12.03;100.00
31538;BME280;18147;51.952;6.146;2023-05-02T01:53:07;101899.09;;;12.04;100.00
31538;BME280;18147;51.952;6.146;2023-05-02T01:55:37;101894.53;;;11.89;100.00
31538;BME280;18147;51.952;6.146;2023-05-02T01:58:03;101902.78;;;12.02;100.00
31538;BME280;18147;51.952;6.146;2023-05-02T02:00:31;101904.03;;;11.95;100.00
31538;BME280;18147;51.952;6.146;2023-05-02T02:02:58;101907.34;;;12.00;100.00
31538;BME280;18147;51.952;6.146;2023-05-02T02:05:25;101912.44;;;12.04;100.00
31538;BME280;18147;51.952;6.146;2023-05-02T02:07:52;101914.22;;;12.05;100.00
31538;BME280;18147;51.952;6.146;2023-05-02T02:10:18;101914.97;;;12.07;100.00
31538;BME280;18147;51.952;6.146;2023-05-02T02:12:52;101916.88;;;12.05;100.00
31538;BME280;18147;51.952;6.146;2023-05-02T02:15:23;101919.38;;;12.08;100.00
31538;BME280;18147;51.952;6.146;2023-05-02T02:18:00;101911.28;;;12.10;100.00
31538;BME280;18147;51.952;6.146;2023-05-02T02:20:29;101915.97;;;12.05;100.00
31538;BME280;18147;51.952;6.146;2023-05-02T02:22:59;101920.09;;;12.12;100.00
31538;BME280;18147;51.952;6.146;2023-05-02T02:25:26;101915.84;;;12.08;100.00
31538;BME280;18147;51.952;6.146;2023-05-02T02:27:52;101922.00;;;12.10;100.00
31538;BME280;18147;51.952;6.146;2023-05-02T02:30:17;101917.88;;;12.03;100.00
31538;BME280;18147;51.952;6.146;2023-05-02T02:32:43;101920.47;;;12.04;100.00
31538;BME280;18147;51.952;6.146;2023-05-02T02:35:09;101923.94;;;12.06;100.00
31538;BME280;18147;51.952;6.146;2023-05-02T02:37:43;101931.16;;;12.04;100.00
31538;BME280;18147;51.952;6.146;2023-05-02T02:40:20;101946.50;;;11.83;100.00
31538;BME280;18147;51.952;6.146;2023-05-02T02:43:18;101942.75;;;11.68;100.00
31538;BME280;18147;51.952;6.146;2023-05-02T02:48:46;101961.81;;;11.44;100.00
31538;BME280;18147;51.952;6.146;2023-05-02T02:51:38;101975.34;;;11.22;100.00
31538;BME280;18147;51.952;6.146;2023-05-02T02:54:17;101977.16;;;11.21;100.00
31538;BME280;18147;51.952;6.146;2023-05-02T02:56:46;101985.25;;;11.20;100.00
31538;BME280;18147;51.952;6.146;2023-05-02T02:59:26;101984.81;;;11.10;100.00
31538;BME280;18147;51.952;6.146;2023-05-02T03:02:03;101984.31;;;11.21;100.00
31538;BME280;18147;51.952;6.146;2023-05-02T03:04:31;101989.91;;;11.33;100.00
31538;BME280;18147;51.952;6.146;2023-05-02T03:06:59;101987.88;;;11.38;100.00
31538;BME280;18147;51.952;6.146;2023-05-02T03:09:26;101993.59;;;11.31;100.00
31538;BME280;18147;51.952;6.146;2023-05-02T03:11:55;101991.72;;;11.33;100.00
31538;BME280;18147;51.952;6.146;2023-05-02T03:14:23;101998.66;;;11.37;100.00
31538;BME280;18147;51.952;6.146;2023-05-02T03:16:50;102002.09;;;11.39;100.00
31538;BME280;18147;51.952;6.146;2023-05-02T03:19:17;101999.50;;;11.37;100.00
31538;BME280;18147;51.952;6.146;2023-05-02T03:21:42;102010.56;;;11.30;100.00
31538;BME280;18147;51.952;6.146;2023-05-02T03:24:16;102012.72;;;11.40;100.00
31538;BME280;18147;51.952;6.146;2023-05-02T03:26:43;102007.59;;;11.55;100.00
31538;BME280;18147;51.952;6.146;2023-05-02T03:29:10;102010.31;;;11.34;100.00
31538;BME280;18147;51.952;6.146;2023-05-02T03:31:39;102011.78;;;11.41;100.00
31538;BME280;18147;51.952;6.146;2023-05-02T03:34:05;102021.09;;;11.33;100.00
31538;BME280;18147;51.952;6.146;2023-05-02T03:36:31;102023.75;;;11.33;100.00
31538;BME280;18147;51.952;6.146;2023-05-02T03:38:57;102019.56;;;11.46;100.00
31538;BME280;18147;51.952;6.146;2023-05-02T03:41:23;102024.53;;;11.54;100.00
31538;BME280;18147;51.952;6.146;2023-05-02T03:43:59;102020.56;;;11.44;100.00
31538;BME280;18147;51.952;6.146;2023-05-02T03:46:26;102032.53;;;11.54;100.00
31538;BME280;18147;51.952;6.146;2023-05-02T03:48:52;102026.56;;;11.49;100.00
31538;BME280;18147;51.952;6.146;2023-05-02T03:51:17;102042.88;;;11.43;100.00
31538;BME280;18147;51.952;6.146;2023-05-02T03:53:47;102044.78;;;11.40;100.00
31538;BME280;18147;51.952;6.146;2023-05-02T03:56:17;102047.06;;;11.29;100.00
31538;BME280;18147;51.952;6.146;2023-05-02T03:58:53;102051.53;;;11.29;100.00
31538;BME280;18147;51.952;6.146;2023-05-02T04:01:22;102048.38;;;11.21;100.00
31538;BME280;18147;51.952;6.146;2023-05-02T04:03:51;102050.53;;;11.12;100.00
31538;BME280;18147;51.952;6.146;2023-05-02T04:06:22;102052.69;;;11.23;100.00
31538;BME280;18147;51.952;6.146;2023-05-02T04:08:54;102050.03;;;11.23;100.00
31538;BME280;18147;51.952;6.146;2023-05-02T04:11:21;102053.06;;;11.34;100.00
31538;BME280;18147;51.952;6.146;2023-05-02T04:13:47;102054.94;;;11.32;100.00
31538;BME280;18147;51.952;6.146;2023-05-02T04:16:13;102059.50;;;11.30;100.00
31538;BME280;18147;51.952;6.146;2023-05-02T04:18:38;102062.22;;;11.29;100.00
31538;BME280;18147;51.952;6.146;2023-05-02T04:21:06;102055.31;;;11.25;100.00
31538;BME280;18147;51.952;6.146;2023-05-02T04:23:34;102066.00;;;11.25;100.00
31538;BME280;18147;51.952;6.146;2023-05-02T04:26:01;102069.47;;;11.27;100.00
31538;BME280;18147;51.952;6.146;2023-05-02T04:28:34;102066.28;;;11.37;100.00
31538;BME280;18147;51.952;6.146;2023-05-02T04:31:00;102069.16;;;11.33;100.00
31538;BME280;18147;51.952;6.146;2023-05-02T04:33:27;102078.47;;;11.24;100.00
31538;BME280;18147;51.952;6.146;2023-05-02T04:35:54;102084.19;;;11.35;100.00
31538;BME280;18147;51.952;6.146;2023-05-02T04:38:24;102085.69;;;11.22;100.00
31538;BME280;18147;51.952;6.146;2023-05-02T04:40:51;102089.31;;;11.21;100.00
31538;BME280;18147;51.952;6.146;2023-05-02T04:43:22;102097.97;;;11.26;100.00
31538;BME280;18147;51.952;6.146;2023-05-02T04:45:53;102104.16;;;11.27;100.00
31538;BME280;18147;51.952;6.146;2023-05-02T04:48:24;102107.41;;;10.94;100.00
31538;BME280;18147;51.952;6.146;2023-05-02T04:50:51;102113.31;;;10.82;100.00
31538;BME280;18147;51.952;6.146;2023-05-02T04:53:21;102134.75;;;10.38;100.00
31538;BME280;18147;51.952;6.146;2023-05-02T04:55:48;102144.88;;;10.30;100.00
31538;BME280;18147;51.952;6.146;2023-05-02T04:58:14;102151.06;;;10.30;100.00
31538;BME280;18147;51.952;6.146;2023-05-02T05:00:41;102148.81;;;10.20;100.00
31538;BME280;18147;51.952;6.146;2023-05-02T05:03:07;102149.13;;;10.34;100.00
31538;BME280;18147;51.952;6.146;2023-05-02T05:05:33;102152.34;;;10.20;100.00
31538;BME280;18147;51.952;6.146;2023-05-02T05:07:59;102170.88;;;10.23;100.00
31538;BME280;18147;51.952;6.146;2023-05-02T05:10:29;102160.97;;;10.05;100.00
31538;BME280;18147;51.952;6.146;2023-05-02T05:12:55;102159.59;;;10.17;100.00
31538;BME280;18147;51.952;6.146;2023-05-02T05:15:23;102160.28;;;10.44;100.00
31538;BME280;18147;51.952;6.146;2023-05-02T05:17:55;102153.97;;;10.46;100.00
31538;BME280;18147;51.952;6.146;2023-05-02T05:20:25;102165.50;;;10.47;100.00
31538;BME280;18147;51.952;6.146;2023-05-02T05:22:55;102170.75;;;10.48;100.00
31538;BME280;18147;51.952;6.146;2023-05-02T05:25:22;102169.19;;;10.44;100.00
31538;BME280;18147;51.952;6.146;2023-05-02T05:27:51;102171.25;;;10.58;100.00
31538;BME280;18147;51.952;6.146;2023-05-02T05:30:17;102172.06;;;10.38;100.00
31538;BME280;18147;51.952;6.146;2023-05-02T05:32:42;102187.28;;;10.36;100.00
31538;BME280;18147;51.952;6.146;2023-05-02T05:35:09;102189.94;;;10.36;100.00
31538;BME280;18147;51.952;6.146;2023-05-02T05:37:36;102203.13;;;10.39;100.00
31538;BME280;18147;51.952;6.146;2023-05-02T05:40:07;102191.69;;;10.37;100.00
31538;BME280;18147;51.952;6.146;2023-05-02T05:42:34;102197.50;;;10.47;100.00
31538;BME280;18147;51.952;6.146;2023-05-02T05:45:05;102204.38;;;10.52;100.00
31538;BME280;18147;51.952;6.146;2023-05-02T05:47:31;102202.75;;;10.48;100.00
31538;BME280;18147;51.952;6.146;2023-05-02T05:49:57;102212.31;;;10.32;100.00
31538;BME280;18147;51.952;6.146;2023-05-02T05:52:26;102214.50;;;10.44;100.00
31538;BME280;18147;51.952;6.146;2023-05-02T05:54:54;102224.28;;;10.44;100.00
31538;BME280;18147;51.952;6.146;2023-05-02T05:57:22;102222.38;;;10.47;100.00
31538;BME280;18147;51.952;6.146;2023-05-02T05:59:48;102237.50;;;10.01;100.00
31538;BME280;18147;51.952;6.146;2023-05-02T06:02:15;102238.59;;;9.96;100.00
31538;BME280;18147;51.952;6.146;2023-05-02T06:04:41;102243.59;;;10.50;100.00
31538;BME280;18147;51.952;6.146;2023-05-02T06:07:07;102254.97;;;10.08;100.00
31538;BME280;18147;51.952;6.146;2023-05-02T06:09:33;102256.00;;;10.29;100.00
31538;BME280;18147;51.952;6.146;2023-05-02T06:12:00;102269.44;;;10.26;100.00
31538;BME280;18147;51.952;6.146;2023-05-02T06:14:27;102275.19;;;10.37;100.00
31538;BME280;18147;51.952;6.146;2023-05-02T06:16:52;102271.84;;;10.32;100.00
31538;BME280;18147;51.952;6.146;2023-05-02T06:19:18;102274.94;;;9.73;100.00
31538;BME280;18147;51.952;6.146;2023-05-02T06:21:44;102280.75;;;9.61;100.00
31538;BME280;18147;51.952;6.146;2023-05-02T06:24:09;102279.00;;;9.83;100.00
31538;BME280;18147;51.952;6.146;2023-05-02T06:26:35;102275.97;;;10.41;100.00
31538;BME280;18147;51.952;6.146;2023-05-02T06:29:01;102290.41;;;9.64;100.00
31538;BME280;18147;51.952;6.146;2023-05-02T06:31:27;102293.84;;;9.42;100.00
31538;BME280;18147;51.952;6.146;2023-05-02T06:33:53;102302.69;;;9.68;100.00
31538;BME280;18147;51.952;6.146;2023-05-02T06:36:19;102303.78;;;9.62;100.00
31538;BME280;18147;51.952;6.146;2023-05-02T06:38:44;102296.03;;;10.28;100.00
31538;BME280;18147;51.952;6.146;2023-05-02T06:41:13;102307.38;;;10.09;100.00
31538;BME280;18147;51.952;6.146;2023-05-02T06:43:39;102313.03;;;10.00;100.00
31538;BME280;18147;51.952;6.146;2023-05-02T06:46:06;102321.75;;;10.05;100.00
31538;BME280;18147;51.952;6.146;2023-05-02T06:48:32;102321.06;;;9.99;100.00
31538;BME280;18147;51.952;6.146;2023-05-02T06:50:59;102331.53;;;10.05;100.00
31538;BME280;18147;51.952;6.146;2023-05-02T06:53:28;102323.88;;;10.19;100.00
31538;BME280;18147;51.952;6.146;2023-05-02T06:55:54;102340.97;;;9.90;100.00
31538;BME280;18147;51.952;6.146;2023-05-02T06:58:20;102342.94;;;9.83;100.00
31538;BME280;18147;51.952;6.146;2023-05-02T07:00:45;102345.28;;;9.69;100.00
31538;BME280;18147;51.952;6.146;2023-05-02T07:03:12;102345.03;;;9.75;100.00
31538;BME280;18147;51.952;6.146;2023-05-02T07:05:38;102351.31;;;9.74;100.00
31538;BME280;18147;51.952;6.146;2023-05-02T07:08:07;102355.16;;;9.66;100.00
31538;BME280;18147;51.952;6.146;2023-05-02T07:10:35;102355.88;;;10.19;100.00
31538;BME280;18147;51.952;6.146;2023-05-02T07:13:01;102362.16;;;9.68;100.00
31538;BME280;18147;51.952;6.146;2023-05-02T07:15:27;102367.44;;;9.95;100.00
31538;BME280;18147;51.952;6.146;2023-05-02T07:17:52;102381.06;;;10.10;100.00
31538;BME280;18147;51.952;6.146;2023-05-02T07:20:18;102372.69;;;10.21;100.00
31538;BME280;18147;51.952;6.146;2023-05-02T07:22:44;102374.88;;;10.35;100.00
31538;BME280;18147;51.952;6.146;2023-05-02T07:25:09;102377.81;;;10.51;99.33
31538;BME280;18147;51.952;6.146;2023-05-02T07:27:35;102379.63;;;10.72;96.71
31538;BME280;18147;51.952;6.146;2023-05-02T07:30:04;102374.69;;;11.07;98.38
31538;BME280;18147;51.952;6.146;2023-05-02T07:32:30;102378.97;;;10.89;94.81
31538;BME280;18147;51.952;6.146;2023-05-02T07:34:56;102387.44;;;11.00;98.24
31538;BME280;18147;51.952;6.146;2023-05-02T07:37:22;102385.06;;;10.69;95.02
31538;BME280;18147;51.952;6.146;2023-05-02T07:39:47;102394.34;;;11.04;96.78
31538;BME280;18147;51.952;6.146;2023-05-02T07:42:13;102398.50;;;11.55;92.89
31538;BME280;18147;51.952;6.146;2023-05-02T07:44:39;102391.78;;;10.57;89.60
31538;BME280;18147;51.952;6.146;2023-05-02T07:47:05;102386.66;;;11.19;89.15
31538;BME280;18147;51.952;6.146;2023-05-02T07:49:31;102392.00;;;11.19;90.37
31538;BME280;18147;51.952;6.146;2023-05-02T07:51:57;102407.53;;;10.63;91.31
31538;BME280;18147;51.952;6.146;2023-05-02T07:54:22;102398.38;;;10.71;89.59
31538;BME280;18147;51.952;6.146;2023-05-02T07:56:50;102409.03;;;11.58;85.18
31538;BME280;18147;51.952;6.146;2023-05-02T07:59:16;102404.44;;;12.23;83.61
31538;BME280;18147;51.952;6.146;2023-05-02T08:01:42;102404.63;;;12.58;81.01
31538;BME280;18147;51.952;6.146;2023-05-02T08:04:08;102421.00;;;10.60;87.64
31538;BME280;18147;51.952;6.146;2023-05-02T08:06:37;102421.78;;;10.39;92.12
31538;BME280;18147;51.952;6.146;2023-05-02T08:09:02;102428.72;;;10.20;90.90
31538;BME280;18147;51.952;6.146;2023-05-02T08:11:28;102425.28;;;10.41;88.37
31538;BME280;18147;51.952;6.146;2023-05-02T08:13:54;102449.53;;;9.57;86.12
31538;BME280;18147;51.952;6.146;2023-05-02T08:16:20;102438.88;;;10.08;83.17
31538;BME280;18147;51.952;6.146;2023-05-02T08:18:45;102439.75;;;9.84;81.83
31538;BME280;18147;51.952;6.146;2023-05-02T08:21:11;102439.94;;;10.04;82.70
31538;BME280;18147;51.952;6.146;2023-05-02T08:23:40;102440.66;;;10.58;82.51
31538;BME280;18147;51.952;6.146;2023-05-02T08:26:06;102444.25;;;11.26;78.99
31538;BME280;18147;51.952;6.146;2023-05-02T08:28:34;102439.94;;;11.65;72.09
31538;BME280;18147;51.952;6.146;2023-05-02T08:31:00;102451.22;;;10.84;75.58
31538;BME280;18147;51.952;6.146;2023-05-02T08:33:28;102447.63;;;10.85;75.64
31538;BME280;18147;51.952;6.146;2023-05-02T08:35:54;102456.59;;;11.50;77.52
31538;BME280;18147;51.952;6.146;2023-05-02T08:38:19;102458.53;;;12.30;77.80
31538;BME280;18147;51.952;6.146;2023-05-02T08:40:45;102459.75;;;12.62;72.66
31538;BME280;18147;51.952;6.146;2023-05-02T08:43:11;102460.22;;;12.90;68.75
31538;BME280;18147;51.952;6.146;2023-05-02T08:45:42;102454.72;;;13.48;64.00
31538;BME280;18147;51.952;6.146;2023-05-02T08:48:10;102457.75;;;12.86;69.61
31538;BME280;18147;51.952;6.146;2023-05-02T08:50:40;102456.88;;;13.04;67.15
31538;BME280;18147;51.952;6.146;2023-05-02T08:53:08;102460.09;;;12.15;68.37
31538;BME280;18147;51.952;6.146;2023-05-02T08:55:37;102458.53;;;13.07;63.60
31538;BME280;18147;51.952;6.146;2023-05-02T08:58:07;102452.53;;;13.20;64.77
31538;BME280;18147;51.952;6.146;2023-05-02T09:00:41;102457.88;;;12.45;67.87
31538;BME280;18147;51.952;6.146;2023-05-02T09:05:52;102477.00;;;12.36;68.45
31538;BME280;18147;51.952;6.146;2023-05-02T09:08:22;102476.25;;;11.70;70.13
31538;BME280;18147;51.952;6.146;2023-05-02T09:10:48;102474.56;;;12.09;67.36
31538;BME280;18147;51.952;6.146;2023-05-02T09:16:05;102478.38;;;13.03;59.87
31538;BME280;18147;51.952;6.146;2023-05-02T09:18:45;102477.69;;;12.60;63.32
31538;BME280;18147;51.952;6.146;2023-05-02T09:21:16;102489.03;;;12.65;63.73
31538;BME280;18147;51.952;6.146;2023-05-02T09:23:49;102496.69;;;12.54;65.18
31538;BME280;18147;51.952;6.146;2023-05-02T09:26:26;102502.41;;;12.65;63.09
31538;BME280;18147;51.952;6.146;2023-05-02T09:28:56;102503.59;;;12.78;61.10
31538;BME280;18147;51.952;6.146;2023-05-02T09:31:24;102498.06;;;13.02;56.95
31538;BME280;18147;51.952;6.146;2023-05-02T09:33:55;102501.47;;;13.43;56.34
31538;BME280;18147;51.952;6.146;2023-05-02T09:36:23;102497.91;;;14.13;54.87
31538;BME280;18147;51.952;6.146;2023-05-02T09:38:49;102502.22;;;13.64;55.20
31538;BME280;18147;51.952;6.146;2023-05-02T09:41:17;102509.41;;;12.49;59.52
31538;BME280;18147;51.952;6.146;2023-05-02T09:43:54;102501.81;;;13.16;57.33
31538;BME280;18147;51.952;6.146;2023-05-02T09:46:21;102510.84;;;12.95;59.17
31538;BME280;18147;51.952;6.146;2023-05-02T09:48:51;102511.19;;;13.45;60.04
31538;BME280;18147;51.952;6.146;2023-05-02T09:51:17;102505.81;;;13.45;54.63
31538;BME280;18147;51.952;6.146;2023-05-02T09:53:43;102515.63;;;12.88;55.72
31538;BME280;18147;51.952;6.146;2023-05-02T09:56:09;102517.84;;;12.19;58.36
31538;BME280;18147;51.952;6.146;2023-05-02T09:58:35;102523.25;;;12.58;59.13
31538;BME280;18147;51.952;6.146;2023-05-02T10:01:01;102528.69;;;12.57;61.65
31538;BME280;18147;51.952;6.146;2023-05-02T10:03:27;102512.78;;;13.31;56.97
31538;BME280;18147;51.952;6.146;2023-05-02T10:05:54;102510.66;;;13.56;58.53
31538;BME280;18147;51.952;6.146;2023-05-02T10:08:21;102507.69;;;13.43;55.99
31538;BME280;18147;51.952;6.146;2023-05-02T10:10:51;102515.03;;;13.93;55.74
31538;BME280;18147;51.952;6.146;2023-05-02T10:13:19;102516.28;;;14.38;55.08
31538;BME280;18147;51.952;6.146;2023-05-02T10:16:01;102519.56;;;13.19;54.32
31538;BME280;18147;51.952;6.146;2023-05-02T10:18:51;102524.94;;;12.61;54.99
31538;BME280;18147;51.952;6.146;2023-05-02T10:21:27;102525.84;;;13.18;56.29
31538;BME280;18147;51.952;6.146;2023-05-02T10:23:54;102517.16;;;14.04;61.42
31538;BME280;18147;51.952;6.146;2023-05-02T10:26:23;102525.97;;;13.71;58.21
31538;BME280;18147;51.952;6.146;2023-05-02T10:28:49;102515.41;;;14.72;53.17
31538;BME280;18147;51.952;6.146;2023-05-02T10:31:17;102527.09;;;14.19;56.24
31538;BME280;18147;51.952;6.146;2023-05-02T10:33:45;102537.84;;;12.31;56.94
31538;BME280;18147;51.952;6.146;2023-05-02T10:36:11;102530.78;;;12.50;57.42
31538;BME280;18147;51.952;6.146;2023-05-02T10:38:40;102524.09;;;12.98;55.91
31538;BME280;18147;51.952;6.146;2023-05-02T10:41:13;102516.13;;;13.36;54.39
31538;BME280;18147;51.952;6.146;2023-05-02T10:43:40;102522.94;;;13.60;59.49
31538;BME280;18147;51.952;6.146;2023-05-02T10:49:12;102529.34;;;13.58;59.90
31538;BME280;18147;51.952;6.146;2023-05-02T10:51:40;102536.44;;;13.21;60.25
31538;BME280;18147;51.952;6.146;2023-05-02T10:54:23;102526.97;;;13.52;58.60
31538;BME280;18147;51.952;6.146;2023-05-02T10:57:01;102526.78;;;13.55;54.10
31538;BME280;18147;51.952;6.146;2023-05-02T10:59:41;102521.16;;;13.78;55.20
31538;BME280;18147;51.952;6.146;2023-05-02T11:05:03;102542.72;;;13.01;58.77
31538;BME280;18147;51.952;6.146;2023-05-02T11:07:33;102540.84;;;12.64;54.67
31538;BME280;18147;51.952;6.146;2023-05-02T11:10:25;102533.91;;;13.56;59.20
31538;BME280;18147;51.952;6.146;2023-05-02T11:12:56;102534.28;;;12.90;57.84
31538;BME280;18147;51.952;6.146;2023-05-02T11:18:05;102534.91;;;13.15;56.50
31538;BME280;18147;51.952;6.146;2023-05-02T11:20:35;102534.69;;;13.58;59.84
31538;BME280;18147;51.952;6.146;2023-05-02T11:23:22;102552.09;;;13.85;61.56
31538;BME280;18147;51.952;6.146;2023-05-02T11:26:01;102536.53;;;13.38;62.34
31538;BME280;18147;51.952;6.146;2023-05-02T11:28:46;102539.72;;;13.83;63.73
31538;BME280;18147;51.952;6.146;2023-05-02T11:33:57;102527.50;;;13.22;58.55
31538;BME280;18147;51.952;6.146;2023-05-02T11:36:30;102530.34;;;13.17;58.83
31538;BME280;18147;51.952;6.146;2023-05-02T11:38:59;102533.38;;;12.91;60.29
31538;BME280;18147;51.952;6.146;2023-05-02T11:41:40;102534.47;;;13.06;62.02
31538;BME280;18147;51.952;6.146;2023-05-02T11:44:06;102538.97;;;13.05;59.58
31538;BME280;18147;51.952;6.146;2023-05-02T11:46:35;102543.25;;;13.83;61.44
31538;BME280;18147;51.952;6.146;2023-05-02T11:49:01;102542.28;;;12.91;56.59
31538;BME280;18147;51.952;6.146;2023-05-02T11:51:27;102541.34;;;13.68;56.42
31538;BME280;18147;51.952;6.146;2023-05-02T11:53:53;102547.00;;;13.62;59.98
31538;BME280;18147;51.952;6.146;2023-05-02T11:56:23;102554.44;;;12.99;59.70
31538;BME280;18147;51.952;6.146;2023-05-02T11:59:01;102549.41;;;13.30;57.16
31538;BME280;18147;51.952;6.146;2023-05-02T12:01:28;102558.00;;;13.18;59.26
31538;BME280;18147;51.952;6.146;2023-05-02T12:04:04;102551.06;;;13.70;59.59
31538;BME280;18147;51.952;6.146;2023-05-02T12:06:32;102548.81;;;14.15;55.07
31538;BME280;18147;51.952;6.146;2023-05-02T12:09:13;102549.53;;;14.36;55.05
31538;BME280;18147;51.952;6.146;2023-05-02T12:11:42;102551.88;;;14.24;51.31
31538;BME280;18147;51.952;6.146;2023-05-02T12:14:08;102558.34;;;14.20;57.07
31538;BME280;18147;51.952;6.146;2023-05-02T12:16:34;102557.09;;;13.93;55.61
31538;BME280;18147;51.952;6.146;2023-05-02T12:18:59;102554.13;;;13.80;53.48
31538;BME280;18147;51.952;6.146;2023-05-02T12:21:27;102564.91;;;13.24;54.40
31538;BME280;18147;51.952;6.146;2023-05-02T12:23:55;102561.47;;;13.77;56.92
31538;BME280;18147;51.952;6.146;2023-05-02T12:26:24;102567.41;;;13.83;61.42
31538;BME280;18147;51.952;6.146;2023-05-02T12:28:54;102568.59;;;13.40;58.93
31538;BME280;18147;51.952;6.146;2023-05-02T12:31:21;102571.13;;;13.43;56.52
31538;BME280;18147;51.952;6.146;2023-05-02T12:33:47;102578.53;;;13.57;57.79
31538;BME280;18147;51.952;6.146;2023-05-02T12:36:14;102581.72;;;13.27;54.98
31538;BME280;18147;51.952;6.146;2023-05-02T12:38:47;102581.94;;;13.23;57.24
31538;BME280;18147;51.952;6.146;2023-05-02T12:41:13;102583.31;;;13.31;56.32
31538;BME280;18147;51.952;6.146;2023-05-02T12:43:47;102583.44;;;13.28;58.44
31538;BME280;18147;51.952;6.146;2023-05-02T12:46:13;102584.09;;;13.33;54.90
31538;BME280;18147;51.952;6.146;2023-05-02T12:48:41;102584.66;;;13.78;62.41
31538;BME280;18147;51.952;6.146;2023-05-02T12:51:22;102574.72;;;13.80;55.43
31538;BME280;18147;51.952;6.146;2023-05-02T12:53:48;102582.34;;;13.70;54.38
31538;BME280;18147;51.952;6.146;2023-05-02T12:56:13;102580.28;;;13.75;58.76
31538;BME280;18147;51.952;6.146;2023-05-02T12:58:48;102586.22;;;13.45;56.32
31538;BME280;18147;51.952;6.146;2023-05-02T13:01:15;102585.44;;;14.16;61.63
31538;BME280;18147;51.952;6.146;2023-05-02T13:03:42;102592.94;;;13.90;59.02
31538;BME280;18147;51.952;6.146;2023-05-02T13:06:08;102588.81;;;14.02;59.33
31538;BME280;18147;51.952;6.146;2023-05-02T13:08:34;102595.59;;;13.73;57.30
31538;BME280;18147;51.952;6.146;2023-05-02T13:11:01;102583.41;;;13.85;57.27
31538;BME280;18147;51.952;6.146;2023-05-02T13:13:27;102590.75;;;13.62;56.22
31538;BME280;18147;51.952;6.146;2023-05-02T13:15:54;102586.91;;;13.30;58.14
31538;BME280;18147;51.952;6.146;2023-05-02T13:18:19;102604.97;;;13.27;60.77
31538;BME280;18147;51.952;6.146;2023-05-02T13:20:45;102598.56;;;12.69;57.61
31538;BME280;18147;51.952;6.146;2023-05-02T13:23:11;102601.00;;;13.15;58.76